Time;durP1;ratioP1;P1;durP2;ratioP2;P2;SDS_P1;SDS_P2;PMS_P1;PMS_P2;Temp;Humidity;BMP_temperature;BMP_pressure;BME280_temperature;BME280_humidity;BME280_pressure;Samples;Min_cycle;Max_cycle;Signal;HPM_P1;HPM_P2
2021/12/24 00:01:28;;;;;;;;;;;8.80;99.90;;;;;;5032432;28;20264;-66
2021/12/24 00:03:54;;;;;;;;;;;8.00;99.90;;;;;;5033580;28;20518;-65
2021/12/24 00:06:19;;;;;;;;;;;7.30;99.90;;;;;;5033079;28;19916;-65
2021/12/24 00:08:47;;;;;;;;;;;;;;;;;;5026570;28;19909;-65
2021/12/24 00:11:13;;;;;;;;;;;8.70;99.90;;;;;;5013710;28;19906;-65
2021/12/24 00:13:43;;;;;;;;;;;;;;;;;;5013180;28;19988;-64
2021/12/24 00:18:53;;;;;;;;;;;8.80;99.90;;;;;;5032920;28;19916;-65
2021/12/24 00:35:11;;;;;;;;;;;8.10;99.90;;;;;;5035531;28;19916;-67
2021/12/24 00:37:38;;;;;;;;;;;8.50;99.90;;;;;;5034316;28;20339;-67
2021/12/24 00:40:13;;;;;;;;;;;9.00;99.90;;;;;;5032891;28;19945;-65
2021/12/24 00:42:43;;;;;;;;;;;8.30;99.90;;;;;;5033527;28;20358;-66
2021/12/24 00:45:10;;;;;;;;;;;8.70;99.90;;;;;;4994452;28;1116276;-65
2021/12/24 00:47:35;;;;;;;;;;;7.80;99.90;;;;;;5018013;28;20374;-64
2021/12/24 00:50:06;;;;;;;;;;;9.00;99.90;;;;;;5036898;28;19916;-64
2021/12/24 00:52:56;;;;;;;;;;;9.20;99.90;;;;;;5035275;28;19909;-65
2021/12/24 00:55:23;;;;;;;;;;;7.70;99.90;;;;;;5034743;28;19905;-65
2021/12/24 00:57:49;;;;;;;;;;;6.20;99.90;;;;;;5035751;28;19920;-65
2021/12/24 01:00:21;;;;;;;;;;;7.20;99.90;;;;;;5034977;28;19916;-66
2021/12/24 01:02:47;;;;;;;;;;;6.60;99.90;;;;;;5035331;28;19909;-66
2021/12/24 01:05:13;;;;;;;;;;;;;;;;;;5016300;28;20397;-64
2021/12/24 01:07:39;;;;;;;;;;;7.20;99.90;;;;;;5033943;28;20012;-64
2021/12/24 01:10:06;;;;;;;;;;;7.30;99.90;;;;;;5033028;28;19955;-64
2021/12/24 01:12:32;;;;;;;;;;;7.10;99.90;;;;;;5033380;28;19915;-65
2021/12/24 01:14:57;;;;;;;;;;;6.50;99.90;;;;;;5033668;28;19909;-64
2021/12/24 01:19:57;;;;;;;;;;;;;;;;;;5032922;28;19909;-64
2021/12/24 01:25:34;;;;;;;;;;;6.10;99.90;;;;;;5033689;28;19970;-64
2021/12/24 01:38:33;;;;;;;;;;;5.40;99.90;;;;;;5033462;28;20306;-65
2021/12/24 01:43:28;;;;;;;;;;;5.60;99.90;;;;;;5033238;28;19905;-64
2021/12/24 01:45:54;;;;;;;;;;;5.70;99.90;;;;;;5033200;28;19913;-66
2021/12/24 01:48:20;;;;;;;;;;;6.20;99.90;;;;;;5032893;28;20016;-66
2021/12/24 01:50:47;;;;;;;;;;;4.70;99.90;;;;;;5032602;28;19948;-65
2021/12/24 01:53:13;;;;;;;;;;;6.00;99.90;;;;;;5032894;28;19962;-64
2021/12/24 01:55:40;;;;;;;;;;;4.40;99.90;;;;;;5037696;28;19905;-65
2021/12/24 01:58:06;;;;;;;;;;;6.10;99.90;;;;;;5039851;28;19991;-66
2021/12/24 02:00:39;;;;;;;;;;;7.00;99.90;;;;;;5032085;28;20430;-65
2021/12/24 02:03:08;;;;;;;;;;;5.70;99.90;;;;;;5032785;28;19909;-64
2021/12/24 02:05:34;;;;;;;;;;;6.40;99.90;;;;;;5032670;28;19991;-64
2021/12/24 02:08:00;;;;;;;;;;;5.50;99.90;;;;;;5032516;28;20020;-65
2021/12/24 02:10:26;;;;;;;;;;;5.90;99.90;;;;;;5014290;28;19913;-65
2021/12/24 02:12:53;;;;;;;;;;;6.30;99.90;;;;;;5032575;28;20241;-64
2021/12/24 02:16:12;;;;;;;;;;;5.30;99.90;;;;;;5032214;28;20329;-65
2021/12/24 02:28:47;;;;;;;;;;;;;;;;;;5032064;28;19924;-65
2021/12/24 02:31:15;;;;;;;;;;;5.50;99.90;;;;;;5031735;28;20274;-65
2021/12/24 02:33:40;;;;;;;;;;;7.00;99.90;;;;;;5031599;28;20252;-64
2021/12/24 02:36:07;;;;;;;;;;;6.70;99.90;;;;;;5023190;28;19917;-65
2021/12/24 02:38:33;;;;;;;;;;;5.60;99.90;;;;;;5031841;28;20003;-65
2021/12/24 02:40:59;;;;;;;;;;;4.90;99.90;;;;;;5031947;28;20008;-65
2021/12/24 02:43:25;;;;;;;;;;;6.00;99.90;;;;;;5032256;28;19916;-64
2021/12/24 02:45:54;;;;;;;;;;;5.30;99.90;;;;;;5055041;22;20007;-64
2021/12/24 02:56:18;;;;;;;;;;;5.80;99.90;;;;;;5050844;28;20374;-64
2021/12/24 02:58:46;;;;;;;;;;;5.10;99.90;;;;;;5057437;28;19913;-64
2021/12/24 03:01:13;;;;;;;;;;;5.70;99.90;;;;;;5055186;28;19999;-64
2021/12/24 03:03:39;;;;;;;;;;;;;;;;;;5052104;28;19905;-64
2021/12/24 03:06:06;;;;;;;;;;;6.60;99.90;;;;;;5054021;28;20386;-64
2021/12/24 03:08:32;;;;;;;;;;;7.80;99.90;;;;;;5051509;28;19920;-64
2021/12/24 03:10:58;;;;;;;;;;;8.30;99.90;;;;;;5055578;28;19909;-64
2021/12/24 03:13:25;;;;;;;;;;;6.50;99.90;;;;;;5057724;28;19954;-65
2021/12/24 03:15:51;;;;;;;;;;;7.20;99.90;;;;;;5045083;28;19915;-64
2021/12/24 03:18:23;;;;;;;;;;;7.30;99.90;;;;;;5031474;28;19905;-64
2021/12/24 03:20:56;;;;;;;;;;;9.40;99.90;;;;;;5031422;28;19905;-64
2021/12/24 03:23:34;;;;;;;;;;;7.40;99.90;;;;;;5031959;28;19905;-64
2021/12/24 03:25:59;;;;;;;;;;;6.90;99.90;;;;;;5032439;28;19913;-64
2021/12/24 03:28:25;;;;;;;;;;;8.40;99.90;;;;;;5031263;28;20325;-63
2021/12/24 03:30:50;;;;;;;;;;;7.90;99.90;;;;;;5031026;28;19909;-63
2021/12/24 03:33:16;;;;;;;;;;;8.10;99.90;;;;;;5031670;28;19913;-63
2021/12/24 03:35:41;;;;;;;;;;;8.20;99.90;;;;;;5033010;28;19909;-63
2021/12/24 03:38:07;;;;;;;;;;;7.90;99.90;;;;;;5035214;28;19905;-63
2021/12/24 03:40:32;;;;;;;;;;;8.50;99.90;;;;;;5035270;28;19972;-62
2021/12/24 03:42:58;;;;;;;;;;;8.80;99.90;;;;;;5035776;28;20339;-63
2021/12/24 03:45:29;;;;;;;;;;;6.40;99.90;;;;;;5034873;28;20019;-64
2021/12/24 03:48:00;;;;;;;;;;;8.20;99.90;;;;;;5042077;28;19913;-64
2021/12/24 03:50:39;;;;;;;;;;;8.60;99.90;;;;;;5047646;28;20282;-64
2021/12/24 03:54:55;;;;;;;;;;;9.40;99.90;;;;;;5049116;28;19905;-63
2021/12/24 03:55:51;;;;;;;;;;;;;;;;;;5048661;28;20386;-64
2021/12/24 03:58:16;;;;;;;;;;;;;;;;;;5049735;28;19916;-64
2021/12/24 04:00:42;;;;;;;;;;;8.90;99.90;;;;;;5047627;28;19916;-64
2021/12/24 04:03:08;;;;;;;;;;;7.30;99.90;;;;;;5043472;28;19905;-64
2021/12/24 04:05:33;;;;;;;;;;;7.70;99.90;;;;;;5041499;28;19995;-64
2021/12/24 04:07:59;;;;;;;;;;;8.60;99.90;;;;;;5041023;28;19909;-64
2021/12/24 04:10:34;;;;;;;;;;;8.60;99.90;;;;;;5040995;28;19917;-64
2021/12/24 04:13:00;;;;;;;;;;;8.60;99.90;;;;;;5036846;28;20405;-64
2021/12/24 04:15:26;;;;;;;;;;;8.50;99.90;;;;;;5031562;28;19910;-63
2021/12/24 04:17:51;;;;;;;;;;;8.30;99.90;;;;;;5013609;28;19921;-64
2021/12/24 04:25:45;;;;;;;;;;;7.80;99.90;;;;;;5015853;28;19944;-63
2021/12/24 04:28:10;;;;;;;;;;;8.40;99.90;;;;;;5015312;28;19909;-64
2021/12/24 04:30:46;;;;;;;;;;;8.70;99.90;;;;;;5014210;28;19906;-63
2021/12/24 04:33:30;;;;;;;;;;;9.30;99.90;;;;;;5014751;28;19916;-63
2021/12/24 04:36:20;;;;;;;;;;;8.30;99.90;;;;;;5027029;28;19979;-63
2021/12/24 05:03:12;;;;;;;;;;;8.90;99.90;;;;;;5033977;28;19920;-63
2021/12/24 05:05:49;;;;;;;;;;;8.00;99.90;;;;;;5033212;28;19916;-64
2021/12/24 05:08:28;;;;;;;;;;;7.90;99.90;;;;;;5013699;28;19964;-62
2021/12/24 05:10:53;;;;;;;;;;;8.20;99.90;;;;;;5013871;28;20367;-63
2021/12/24 05:13:20;;;;;;;;;;;7.90;99.90;;;;;;5014949;28;19910;-62
2021/12/24 05:15:49;;;;;;;;;;;8.40;99.90;;;;;;5013923;28;19944;-63
2021/12/24 05:18:37;;;;;;;;;;;8.00;99.90;;;;;;5013376;28;20627;-63
2021/12/24 05:23:47;;;;;;;;;;;9.20;99.90;;;;;;5014233;28;19981;-63
2021/12/24 05:26:14;;;;;;;;;;;9.20;99.90;;;;;;5013717;28;19909;-63
2021/12/24 05:28:39;;;;;;;;;;;;;;;;;;5013253;28;19913;-63
2021/12/24 05:31:05;;;;;;;;;;;7.50;99.90;;;;;;5013260;28;19912;-62
2021/12/24 05:33:31;;;;;;;;;;;9.10;99.90;;;;;;5018098;28;19905;-63
2021/12/24 05:35:56;;;;;;;;;;;7.90;99.90;;;;;;5033068;28;19905;-64
2021/12/24 05:38:22;;;;;;;;;;;8.30;99.90;;;;;;5033150;28;19909;-63
2021/12/24 05:40:47;;;;;;;;;;;9.10;99.90;;;;;;5032905;28;19991;-64
2021/12/24 05:43:13;;;;;;;;;;;9.20;99.90;;;;;;5033097;28;19920;-64
2021/12/24 05:45:38;;;;;;;;;;;8.10;99.90;;;;;;5032852;28;19986;-65
2021/12/24 05:48:04;;;;;;;;;;;8.20;99.90;;;;;;5014908;28;19923;-67
2021/12/24 05:50:30;;;;;;;;;;;9.70;99.90;;;;;;5030842;28;20417;-70
2021/12/24 05:52:55;;;;;;;;;;;9.10;99.90;;;;;;5031842;28;19909;-71
2021/12/24 05:55:21;;;;;;;;;;;8.70;99.90;;;;;;5031712;28;20014;-70
2021/12/24 05:57:47;;;;;;;;;;;8.20;99.90;;;;;;5031283;28;19909;-70
2021/12/24 06:00:12;;;;;;;;;;;8.90;99.90;;;;;;5030161;28;20011;-70
2021/12/24 06:02:38;;;;;;;;;;;8.50;99.90;;;;;;5031731;28;19909;-66
2021/12/24 06:05:04;;;;;;;;;;;8.90;99.90;;;;;;5023309;28;20375;-73
2021/12/24 06:07:30;;;;;;;;;;;8.50;99.90;;;;;;5031692;28;19917;-74
2021/12/24 06:09:55;;;;;;;;;;;8.70;99.90;;;;;;5031349;28;19909;-75
2021/12/24 06:12:21;;;;;;;;;;;8.60;99.90;;;;;;5020130;28;20339;-74
2021/12/24 06:14:53;;;;;;;;;;;8.40;99.90;;;;;;5028991;28;19947;-74
2021/12/24 06:17:18;;;;;;;;;;;9.10;99.90;;;;;;5031743;28;19909;-73
2021/12/24 06:19:44;;;;;;;;;;;8.70;99.90;;;;;;5031305;28;19951;-71
2021/12/24 06:22:10;;;;;;;;;;;8.70;99.90;;;;;;5031142;28;19920;-72
2021/12/24 06:24:36;;;;;;;;;;;9.40;99.90;;;;;;5031492;28;19905;-74
2021/12/24 06:27:01;;;;;;;;;;;8.80;99.90;;;;;;5030703;28;19920;-75
2021/12/24 06:29:27;;;;;;;;;;;8.60;99.90;;;;;;5030852;28;20350;-74
2021/12/24 06:31:52;;;;;;;;;;;8.70;99.90;;;;;;5031375;28;19909;-73
2021/12/24 06:34:18;;;;;;;;;;;8.80;99.90;;;;;;5013835;28;19909;-75
2021/12/24 06:36:47;;;;;;;;;;;8.40;99.90;;;;;;5030069;28;19955;-75
2021/12/24 06:39:12;;;;;;;;;;;8.50;99.90;;;;;;5030538;28;20282;-74
2021/12/24 06:41:38;;;;;;;;;;;8.90;99.90;;;;;;5031553;28;19909;-74
2021/12/24 06:44:05;;;;;;;;;;;9.30;99.90;;;;;;5031055;28;20386;-74
2021/12/24 06:46:30;;;;;;;;;;;8.30;99.90;;;;;;5030757;28;19921;-73
2021/12/24 06:48:56;;;;;;;;;;;8.80;99.90;;;;;;5030512;28;19924;-70
2021/12/24 06:51:22;;;;;;;;;;;8.70;99.90;;;;;;5032016;28;19952;-69
2021/12/24 06:53:48;;;;;;;;;;;8.70;99.90;;;;;;5032224;28;19905;-69
2021/12/24 06:56:13;;;;;;;;;;;8.60;99.90;;;;;;5031208;28;19920;-73
2021/12/24 06:58:39;;;;;;;;;;;8.50;99.90;;;;;;5031052;28;19916;-73
2021/12/24 07:01:04;;;;;;;;;;;8.50;99.90;;;;;;5030552;28;19916;-73
2021/12/24 07:03:30;;;;;;;;;;;9.30;99.90;;;;;;5031983;28;19913;-70
2021/12/24 07:05:56;;;;;;;;;;;8.90;99.90;;;;;;5037873;28;19951;-69
2021/12/24 07:08:21;;;;;;;;;;;8.90;99.90;;;;;;5031385;28;20419;-69
2021/12/24 07:10:47;;;;;;;;;;;8.80;99.90;;;;;;5033404;28;19913;-70
2021/12/24 07:13:12;;;;;;;;;;;10.00;99.90;;;;;;5036303;28;19913;-70
2021/12/24 07:15:38;;;;;;;;;;;8.70;99.90;;;;;;5035648;28;19913;-70
2021/12/24 07:18:03;;;;;;;;;;;8.80;99.90;;;;;;5035875;28;19966;-70
2021/12/24 07:20:29;;;;;;;;;;;8.70;99.90;;;;;;5035379;28;19905;-69
2021/12/24 07:22:55;;;;;;;;;;;9.50;99.90;;;;;;5035798;28;19966;-69
2021/12/24 07:25:20;;;;;;;;;;;8.90;99.90;;;;;;5035517;28;20296;-69
2021/12/24 07:27:46;;;;;;;;;;;9.60;99.90;;;;;;5034493;28;19935;-69
2021/12/24 07:30:12;;;;;;;;;;;8.70;99.90;;;;;;5035346;28;19905;-70
2021/12/24 07:32:39;;;;;;;;;;;8.90;99.90;;;;;;5035853;28;20330;-69
2021/12/24 07:35:05;;;;;;;;;;;9.50;99.90;;;;;;5035333;28;19904;-70
2021/12/24 07:37:30;;;;;;;;;;;8.60;99.90;;;;;;5035176;28;19991;-69
2021/12/24 07:39:56;;;;;;;;;;;8.80;99.90;;;;;;5035071;28;19913;-69
2021/12/24 07:42:23;;;;;;;;;;;9.00;99.90;;;;;;5035959;28;19909;-70
2021/12/24 07:44:49;;;;;;;;;;;8.50;99.90;;;;;;5035922;28;19952;-70
2021/12/24 07:47:26;;;;;;;;;;;8.80;99.90;;;;;;5042133;28;19924;-71
2021/12/24 07:50:00;;;;;;;;;;;8.60;99.90;;;;;;5055425;28;19973;-72
2021/12/24 07:52:25;;;;;;;;;;;8.20;99.90;;;;;;5039027;28;20389;-68
2021/12/24 07:54:54;;;;;;;;;;;9.10;99.90;;;;;;5035833;28;19917;-69
2021/12/24 07:57:20;;;;;;;;;;;9.60;99.90;;;;;;5034990;28;19905;-69
2021/12/24 07:59:46;;;;;;;;;;;8.80;99.90;;;;;;5034684;28;20287;-68
2021/12/24 08:02:14;;;;;;;;;;;8.70;99.90;;;;;;5035162;28;19909;-67
2021/12/24 08:04:40;;;;;;;;;;;8.80;99.90;;;;;;5035116;28;19905;-67
2021/12/24 08:07:06;;;;;;;;;;;9.70;99.90;;;;;;5034239;28;19980;-67
2021/12/24 08:09:32;;;;;;;;;;;8.80;99.90;;;;;;5034343;28;19913;-68
2021/12/24 08:11:57;;;;;;;;;;;8.10;99.90;;;;;;5017362;28;19905;-68
2021/12/24 08:14:23;;;;;;;;;;;8.70;99.90;;;;;;5035059;28;20375;-68
2021/12/24 08:16:48;;;;;;;;;;;9.20;99.90;;;;;;5034909;28;19909;-68
2021/12/24 08:19:16;;;;;;;;;;;8.60;99.90;;;;;;5034061;28;20024;-68
2021/12/24 08:21:42;;;;;;;;;;;8.90;99.90;;;;;;5033600;28;19940;-68
2021/12/24 08:24:08;;;;;;;;;;;8.60;99.90;;;;;;5043289;28;20354;-69
2021/12/24 08:26:33;;;;;;;;;;;9.20;99.90;;;;;;5045552;28;19905;-69
2021/12/24 08:28:59;;;;;;;;;;;9.10;99.90;;;;;;5027879;28;19908;-69
2021/12/24 08:31:24;;;;;;;;;;;8.90;99.90;;;;;;5043689;28;19905;-68
2021/12/24 08:33:50;;;;;;;;;;;8.90;99.90;;;;;;5035311;28;19912;-68
2021/12/24 08:36:16;;;;;;;;;;;9.20;99.90;;;;;;5037827;28;19912;-70
2021/12/24 08:38:41;;;;;;;;;;;9.00;99.90;;;;;;5047615;28;19932;-72
2021/12/24 08:41:07;;;;;;;;;;;9.70;99.90;;;;;;5020366;28;19913;-70
2021/12/24 08:43:33;;;;;;;;;;;9.50;99.90;;;;;;5046746;28;19904;-70
2021/12/24 08:45:59;;;;;;;;;;;10.30;99.90;;;;;;5043788;28;19913;-70
2021/12/24 08:48:25;;;;;;;;;;;8.00;99.90;;;;;;5036547;28;19920;-70
2021/12/24 08:50:50;;;;;;;;;;;8.60;99.90;;;;;;5034240;28;19909;-69
2021/12/24 08:53:16;;;;;;;;;;;8.70;99.90;;;;;;5034705;28;19909;-69
2021/12/24 08:55:41;;;;;;;;;;;8.80;99.90;;;;;;5034123;28;19915;-69
2021/12/24 08:58:07;;;;;;;;;;;8.80;99.90;;;;;;5034042;28;19909;-69
2021/12/24 09:00:33;;;;;;;;;;;8.60;99.90;;;;;;5033638;28;19909;-69
2021/12/24 09:02:59;;;;;;;;;;;8.60;99.90;;;;;;5033961;28;19908;-69
2021/12/24 09:05:24;;;;;;;;;;;7.70;99.90;;;;;;5033425;28;19970;-70
2021/12/24 09:07:50;;;;;;;;;;;8.70;99.90;;;;;;5033849;28;19921;-70
2021/12/24 09:10:16;;;;;;;;;;;9.30;99.90;;;;;;5032905;28;19909;-71
2021/12/24 09:12:43;;;;;;;;;;;8.80;99.90;;;;;;5033939;28;19909;-72
2021/12/24 09:15:10;;;;;;;;;;;10.00;99.90;;;;;;5033681;28;19909;-72
2021/12/24 09:17:36;;;;;;;;;;;9.30;99.90;;;;;;5033625;28;19909;-71
2021/12/24 09:20:01;;;;;;;;;;;9.50;99.90;;;;;;5033068;28;19916;-71
2021/12/24 09:22:31;;;;;;;;;;;8.80;99.90;;;;;;5033685;28;19912;-72
2021/12/24 09:24:57;;;;;;;;;;;9.00;99.90;;;;;;5033707;28;20413;-72
2021/12/24 09:27:23;;;;;;;;;;;9.00;99.90;;;;;;5015965;28;19917;-72
2021/12/24 09:29:49;;;;;;;;;;;10.30;99.90;;;;;;5033581;28;19996;-72
2021/12/24 09:32:14;;;;;;;;;;;9.30;99.90;;;;;;5033336;28;19947;-73
2021/12/24 09:34:40;;;;;;;;;;;9.30;99.90;;;;;;5033375;28;19995;-73
2021/12/24 09:37:06;;;;;;;;;;;;;;;;;;5032917;28;19949;-72
2021/12/24 09:39:32;;;;;;;;;;;9.00;99.90;;;;;;5032665;28;20311;-72
2021/12/24 09:41:58;;;;;;;;;;;8.10;99.90;;;;;;5032301;28;19995;-72
2021/12/24 09:44:24;;;;;;;;;;;8.80;99.90;;;;;;5015728;28;19909;-71
2021/12/24 09:46:49;;;;;;;;;;;8.80;99.90;;;;;;5032678;28;19966;-71
2021/12/24 09:49:15;;;;;;;;;;;8.40;99.90;;;;;;5014558;28;20003;-70
2021/12/24 09:51:42;;;;;;;;;;;9.60;99.90;;;;;;5033284;28;19920;-71
2021/12/24 09:54:09;;;;;;;;;;;9.00;99.90;;;;;;5033427;28;19916;-71
2021/12/24 09:56:35;;;;;;;;;;;9.30;99.90;;;;;;5032971;28;20352;-74
2021/12/24 09:59:00;;;;;;;;;;;9.50;99.90;;;;;;5033172;28;19920;-73
2021/12/24 10:01:26;;;;;;;;;;;9.50;99.90;;;;;;5032783;28;19912;-71
2021/12/24 10:03:59;;;;;;;;;;;8.50;99.90;;;;;;5033697;28;20000;-71
2021/12/24 10:06:24;;;;;;;;;;;9.00;99.90;;;;;;5033082;28;20278;-70
2021/12/24 10:08:58;;;;;;;;;;;8.20;99.90;;;;;;5033130;28;20012;-71
2021/12/24 10:11:28;;;;;;;;;;;9.70;99.90;;;;;;5033509;28;19909;-71
2021/12/24 10:14:03;;;;;;;;;;;9.20;99.90;;;;;;5033528;28;19909;-74
2021/12/24 10:16:29;;;;;;;;;;;9.00;99.90;;;;;;5033790;28;19962;-74
2021/12/24 10:18:55;;;;;;;;;;;8.70;99.90;;;;;;5032823;28;19913;-73
2021/12/24 10:21:22;;;;;;;;;;;8.20;99.90;;;;;;5034162;28;19912;-74
2021/12/24 10:23:50;;;;;;;;;;;8.20;99.90;;;;;;5016643;28;19913;-74
2021/12/24 10:26:36;;;;;;;;;;;8.60;99.90;;;;;;5033990;28;20413;-74
2021/12/24 10:29:01;;;;;;;;;;;8.90;99.90;;;;;;5041000;28;19928;-74
2021/12/24 10:31:35;;;;;;;;;;;7.90;99.90;;;;;;5045815;28;19964;-74
2021/12/24 10:34:06;;;;;;;;;;;8.30;99.90;;;;;;5045432;28;19916;-73
2021/12/24 10:36:32;;;;;;;;;;;9.70;99.90;;;;;;5044890;28;19931;-74
2021/12/24 10:38:58;;;;;;;;;;;8.30;99.90;;;;;;5043324;28;20339;-74
2021/12/24 10:41:25;;;;;;;;;;;8.60;99.90;;;;;;5027453;28;19916;-73
2021/12/24 10:43:51;;;;;;;;;;;7.90;99.90;;;;;;5044863;28;19920;-71
2021/12/24 10:46:22;;;;;;;;;;;7.90;99.90;;;;;;5041602;28;19913;-71
2021/12/24 10:48:58;;;;;;;;;;;;;;;;;;5042224;28;19909;-70
2021/12/24 10:51:52;;;;;;;;;;;9.20;99.90;;;;;;5044374;28;19905;-70
2021/12/24 10:54:09;;;;;;;;;;;9.00;99.90;;;;;;5043800;28;19937;-71
2021/12/24 10:56:35;;;;;;;;;;;8.20;99.90;;;;;;5054124;28;19920;-71
2021/12/24 10:59:01;;;;;;;;;;;8.60;99.90;;;;;;5042766;28;19952;-71
2021/12/24 11:01:26;;;;;;;;;;;8.40;99.90;;;;;;5015168;28;19909;-71
2021/12/24 11:03:52;;;;;;;;;;;8.60;99.90;;;;;;5032382;28;20546;-70
2021/12/24 11:06:21;;;;;;;;;;;8.20;99.90;;;;;;5030147;28;19943;-71
2021/12/24 11:08:53;;;;;;;;;;;8.30;99.90;;;;;;5032052;28;19909;-72
2021/12/24 11:11:18;;;;;;;;;;;8.80;99.90;;;;;;5031962;28;19905;-69
2021/12/24 11:13:45;;;;;;;;;;;9.10;99.90;;;;;;5032325;28;19916;-70
2021/12/24 11:16:11;;;;;;;;;;;8.80;99.90;;;;;;5034472;28;19916;-71
2021/12/24 11:18:39;;;;;;;;;;;8.60;99.90;;;;;;5031575;28;19909;-70
2021/12/24 11:21:07;;;;;;;;;;;9.00;99.90;;;;;;5031324;28;20025;-70
2021/12/24 11:23:34;;;;;;;;;;;9.30;99.90;;;;;;5031961;28;20287;-71
2021/12/24 11:26:03;;;;;;;;;;;8.50;99.90;;;;;;5029731;28;19917;-71
2021/12/24 11:28:28;;;;;;;;;;;9.60;99.90;;;;;;5028763;28;19948;-70
2021/12/24 11:30:55;;;;;;;;;;;9.60;99.90;;;;;;5038478;28;19909;-70
2021/12/24 11:33:23;;;;;;;;;;;9.70;99.90;;;;;;5030319;28;19913;-70
2021/12/24 11:35:50;;;;;;;;;;;10.00;99.90;;;;;;5031286;28;19913;-70
2021/12/24 11:38:16;;;;;;;;;;;9.70;99.90;;;;;;5031623;28;19905;-70
2021/12/24 11:40:44;;;;;;;;;;;10.50;99.90;;;;;;5031386;28;19913;-72
2021/12/24 11:43:09;;;;;;;;;;;9.20;99.90;;;;;;5031962;28;19905;-71
2021/12/24 11:45:35;;;;;;;;;;;9.80;99.90;;;;;;5031136;28;19912;-71
2021/12/24 11:48:02;;;;;;;;;;;9.60;99.90;;;;;;5013722;28;19912;-74
2021/12/24 11:50:28;;;;;;;;;;;8.70;99.90;;;;;;5031587;28;20291;-73
2021/12/24 11:52:55;;;;;;;;;;;9.40;99.90;;;;;;5031313;28;19905;-72
2021/12/24 11:55:22;;;;;;;;;;;9.30;99.90;;;;;;5031453;28;19972;-72
2021/12/24 11:57:50;;;;;;;;;;;9.20;99.90;;;;;;5034834;28;19912;-72
2021/12/24 12:00:20;;;;;;;;;;;8.90;99.90;;;;;;5032841;28;19909;-72
2021/12/24 12:02:46;;;;;;;;;;;8.40;99.90;;;;;;5034946;28;19999;-73
2021/12/24 12:05:17;;;;;;;;;;;9.50;99.90;;;;;;5026859;28;20007;-73
2021/12/24 12:07:43;;;;;;;;;;;9.00;99.90;;;;;;5034674;28;19913;-73
2021/12/24 12:10:09;;;;;;;;;;;9.20;99.90;;;;;;5034367;28;20381;-71
2021/12/24 12:12:36;;;;;;;;;;;8.40;99.90;;;;;;5034447;28;19905;-72
2021/12/24 12:15:20;;;;;;;;;;;8.50;99.90;;;;;;5034674;28;19999;-71
2021/12/24 12:17:53;;;;;;;;;;;9.80;99.90;;;;;;5033602;28;19951;-70
2021/12/24 12:20:43;;;;;;;;;;;8.80;99.90;;;;;;5034524;28;20517;-74
2021/12/24 12:23:15;;;;;;;;;;;9.90;99.90;;;;;;5034204;28;19991;-74
2021/12/24 12:25:41;;;;;;;;;;;9.40;99.90;;;;;;5033004;28;19920;-75
2021/12/24 12:28:12;;;;;;;;;;;9.70;99.90;;;;;;5034146;28;20015;-75
2021/12/24 12:30:42;;;;;;;;;;;8.70;99.90;;;;;;5032970;28;19905;-75
2021/12/24 12:33:08;;;;;;;;;;;9.60;99.90;;;;;;5034613;28;19955;-75
2021/12/24 12:36:04;;;;;;;;;;;10.10;99.90;;;;;;5034157;28;19905;-74
2021/12/24 12:38:29;;;;;;;;;;;9.60;99.90;;;;;;5017396;28;19912;-75
2021/12/24 12:41:14;;;;;;;;;;;10.40;99.90;;;;;;5034301;28;19905;-74
2021/12/24 12:43:39;;;;;;;;;;;8.10;99.90;;;;;;5034330;28;19905;-75
2021/12/24 12:46:05;;;;;;;;;;;9.30;99.90;;;;;;5034333;28;19917;-76
2021/12/24 12:48:48;;;;;;;;;;;10.40;99.90;;;;;;5034875;28;19913;-76
2021/12/24 12:51:14;;;;;;;;;;;;;;;;;;5039408;28;19992;-77
2021/12/24 12:53:41;;;;;;;;;;;9.90;99.90;;;;;;5034685;28;19944;-76
2021/12/24 12:56:12;;;;;;;;;;;10.30;99.90;;;;;;5034048;28;19913;-75
2021/12/24 12:58:39;;;;;;;;;;;9.70;99.90;;;;;;5033810;28;20264;-76
2021/12/24 13:01:05;;;;;;;;;;;;;;;;;;5033856;28;19915;-75
2021/12/24 13:03:31;;;;;;;;;;;9.80;99.90;;;;;;5033968;28;19955;-76
2021/12/24 13:06:01;;;;;;;;;;;10.00;99.90;;;;;;5033853;28;19991;-76
2021/12/24 13:08:28;;;;;;;;;;;8.20;99.90;;;;;;5032689;28;19963;-75
2021/12/24 13:11:20;;;;;;;;;;;9.80;99.90;;;;;;5033698;28;19992;-75
2021/12/24 13:13:57;;;;;;;;;;;10.30;99.90;;;;;;5030523;28;19928;-75
2021/12/24 13:16:24;;;;;;;;;;;9.30;99.90;;;;;;5033747;28;19987;-76
2021/12/24 13:18:59;;;;;;;;;;;9.80;99.90;;;;;;5033711;28;20276;-77
2021/12/24 13:24:15;;;;;;;;;;;10.30;99.90;;;;;;5032632;28;19918;-76
2021/12/24 13:26:42;;;;;;;;;;;10.00;99.90;;;;;;5032811;28;19913;-77
2021/12/24 13:29:17;;;;;;;;;;;9.50;99.90;;;;;;5032448;28;19912;-77
2021/12/24 13:32:09;;;;;;;;;;;10.40;99.90;;;;;;5015440;28;19928;-79
2021/12/24 13:34:36;;;;;;;;;;;10.30;99.90;;;;;;5028961;28;20363;-78
2021/12/24 13:37:12;;;;;;;;;;;9.80;99.90;;;;;;5032676;28;19913;-77
2021/12/24 13:39:44;;;;;;;;;;;10.10;99.90;;;;;;5031148;28;19916;-78
2021/12/24 13:42:10;;;;;;;;;;;10.70;99.90;;;;;;5032529;28;19909;-80
2021/12/24 13:44:38;;;;;;;;;;;8.00;99.90;;;;;;5032261;28;19920;-76
2021/12/24 13:47:15;;;;;;;;;;;10.00;99.90;;;;;;5031906;28;19912;-77
2021/12/24 13:55:33;;;;;;;;;;;;;;;;;;5032978;28;19947;-75
2021/12/24 13:58:03;;;;;;;;;;;9.30;99.90;;;;;;5025729;28;19905;-77
2021/12/24 14:00:30;;;;;;;;;;;10.30;99.90;;;;;;5040894;28;19897;-75
2021/12/24 14:02:57;;;;;;;;;;;10.10;99.90;;;;;;5041875;28;19917;-77
2021/12/24 14:05:23;;;;;;;;;;;9.70;99.90;;;;;;5030840;28;19909;-77
2021/12/24 14:08:08;;;;;;;;;;;9.10;99.90;;;;;;5028274;28;19921;-77
2021/12/24 14:10:34;;;;;;;;;;;10.60;99.90;;;;;;5040015;28;19909;-76
2021/12/24 14:13:06;;;;;;;;;;;10.40;99.90;;;;;;5040077;28;19909;-74
2021/12/24 14:15:43;;;;;;;;;;;9.20;99.90;;;;;;5037111;28;20362;-76
2021/12/24 14:18:47;;;;;;;;;;;8.70;99.90;;;;;;5030795;28;19905;-76
2021/12/24 14:24:24;;;;;;;;;;;10.50;99.90;;;;;;5012921;28;19912;-75
2021/12/24 14:27:01;;;;;;;;;;;10.10;99.90;;;;;;4979427;28;20283;-74
2021/12/24 14:29:28;;;;;;;;;;;10.20;99.90;;;;;;4994835;28;19916;-74
2021/12/24 14:31:56;;;;;;;;;;;9.90;99.90;;;;;;5013077;28;19912;-75
2021/12/24 14:34:33;;;;;;;;;;;8.80;99.90;;;;;;5028591;28;19931;-76
2021/12/24 14:37:01;;;;;;;;;;;10.10;99.90;;;;;;5030551;28;19905;-75
2021/12/24 14:39:34;;;;;;;;;;;9.90;99.90;;;;;;5007882;28;20316;-74
2021/12/24 14:42:08;;;;;;;;;;;9.00;99.90;;;;;;5032212;28;19905;-70
2021/12/24 14:44:34;;;;;;;;;;;9.10;99.90;;;;;;5032196;28;19927;-71
2021/12/24 14:46:59;;;;;;;;;;;9.40;99.90;;;;;;5032380;28;20367;-69
2021/12/24 14:49:35;;;;;;;;;;;9.20;99.90;;;;;;5030854;28;20006;-74
2021/12/24 14:52:32;;;;;;;;;;;8.40;99.90;;;;;;5031927;28;19909;-72
2021/12/24 14:55:18;;;;;;;;;;;9.50;99.90;;;;;;4991910;28;19909;-73
2021/12/24 14:57:48;;;;;;;;;;;7.70;99.90;;;;;;5043952;28;20375;-73
2021/12/24 15:00:15;;;;;;;;;;;9.90;99.90;;;;;;5026622;28;20386;-72
2021/12/24 15:02:41;;;;;;;;;;;9.80;99.90;;;;;;5029201;28;19951;-73
2021/12/24 15:05:07;;;;;;;;;;;10.50;99.90;;;;;;5031315;28;19924;-72
2021/12/24 15:07:32;;;;;;;;;;;10.10;99.90;;;;;;5031067;28;19909;-73
2021/12/24 15:10:11;;;;;;;;;;;8.70;99.90;;;;;;5031101;28;19909;-72
2021/12/24 15:12:41;;;;;;;;;;;10.10;99.90;;;;;;5031026;28;19913;-73
2021/12/24 15:15:07;;;;;;;;;;;9.10;99.90;;;;;;5019550;28;20342;-74
2021/12/24 15:17:43;;;;;;;;;;;8.00;99.90;;;;;;5013150;28;19909;-72
2021/12/24 15:20:09;;;;;;;;;;;8.60;99.90;;;;;;5030751;28;19913;-72
2021/12/24 15:22:35;;;;;;;;;;;9.60;99.90;;;;;;5031731;28;19912;-72
2021/12/24 15:25:01;;;;;;;;;;;8.10;99.90;;;;;;5031811;28;19913;-72
2021/12/24 15:27:31;;;;;;;;;;;9.50;99.90;;;;;;5031859;28;20366;-73
2021/12/24 15:29:58;;;;;;;;;;;8.10;99.90;;;;;;5031342;28;19916;-73
2021/12/24 15:32:23;;;;;;;;;;;8.30;99.90;;;;;;5034135;28;19913;-74
2021/12/24 15:34:49;;;;;;;;;;;9.60;99.90;;;;;;5034960;28;19905;-74
2021/12/24 15:37:14;;;;;;;;;;;9.20;99.90;;;;;;5035278;28;19905;-74
2021/12/24 15:39:40;;;;;;;;;;;9.00;99.90;;;;;;5034387;28;19913;-73
2021/12/24 15:42:06;;;;;;;;;;;8.80;99.90;;;;;;5029793;28;19917;-73
2021/12/24 15:44:31;;;;;;;;;;;8.90;99.90;;;;;;5034645;28;19909;-74
2021/12/24 15:46:57;;;;;;;;;;;8.80;99.90;;;;;;5035557;28;20418;-77
2021/12/24 15:49:22;;;;;;;;;;;10.10;99.90;;;;;;5034671;28;19917;-74
2021/12/24 15:51:48;;;;;;;;;;;8.90;99.90;;;;;;5034291;28;20329;-76
2021/12/24 15:54:13;;;;;;;;;;;8.80;99.90;;;;;;5033859;28;19913;-75
2021/12/24 15:56:39;;;;;;;;;;;8.40;99.90;;;;;;5034139;28;19959;-75
2021/12/24 15:59:04;;;;;;;;;;;9.10;99.90;;;;;;5032788;28;20395;-75
2021/12/24 16:01:30;;;;;;;;;;;;;;;;;;5034524;28;19956;-75
2021/12/24 16:03:56;;;;;;;;;;;9.70;99.90;;;;;;5024600;28;19905;-74
2021/12/24 16:06:21;;;;;;;;;;;8.60;99.90;;;;;;5035014;28;19905;-75
2021/12/24 16:08:47;;;;;;;;;;;8.80;99.90;;;;;;5033735;28;19913;-75
2021/12/24 16:11:12;;;;;;;;;;;8.60;99.90;;;;;;5034195;28;19905;-74
2021/12/24 16:13:38;;;;;;;;;;;8.10;99.90;;;;;;5026984;28;20124;-74
2021/12/24 16:16:05;;;;;;;;;;;9.00;99.90;;;;;;5034308;28;19912;-76
2021/12/24 16:18:31;;;;;;;;;;;8.80;99.90;;;;;;5032505;28;19913;-75